sensor_id;sensor_type;location;lat;lon;timestamp;pressure;altitude;pressure_sealevel;temperature;humidity
25560;BME280;13450;49.374;8.584;2023-12-20T00:00:57;100647.81;;;4.07;100.00
25560;BME280;13450;49.374;8.584;2023-12-20T00:03:22;100653.13;;;4.07;100.00
25560;BME280;13450;49.374;8.584;2023-12-20T00:05:49;100648.50;;;4.09;100.00
25560;BME280;13450;49.374;8.584;2023-12-20T00:08:14;100641.53;;;4.08;100.00
25560;BME280;13450;49.374;8.584;2023-12-20T00:10:39;100650.47;;;4.07;100.00
25560;BME280;13450;49.374;8.584;2023-12-20T00:13:05;100640.69;;;4.07;100.00
25560;BME280;13450;49.374;8.584;2023-12-20T00:15:32;100649.50;;;4.08;100.00
25560;BME280;13450;49.374;8.584;2023-12-20T00:17:57;100651.88;;;4.11;100.00
25560;BME280;13450;49.374;8.584;2023-12-20T00:20:22;100638.63;;;4.11;100.00
25560;BME280;13450;49.374;8.584;2023-12-20T00:22:47;100644.59;;;4.13;100.00
25560;BME280;13450;49.374;8.584;2023-12-20T00:25:15;100642.22;;;4.10;100.00
25560;BME280;13450;49.374;8.584;2023-12-20T00:27:41;100646.84;;;4.08;100.00
25560;BME280;13450;49.374;8.584;2023-12-20T00:30:07;100643.22;;;4.09;100.00
25560;BME280;13450;49.374;8.584;2023-12-20T00:32:32;100635.97;;;4.11;100.00
25560;BME280;13450;49.374;8.584;2023-12-20T00:35:00;100640.28;;;4.12;100.00
25560;BME280;13450;49.374;8.584;2023-12-20T00:37:25;100637.34;;;4.15;100.00
25560;BME280;13450;49.374;8.584;2023-12-20T00:39:50;100628.72;;;4.13;100.00
25560;BME280;13450;49.374;8.584;2023-12-20T00:42:16;100634.00;;;4.13;100.00
25560;BME280;13450;49.374;8.584;2023-12-20T00:44:41;100633.59;;;4.08;100.00
25560;BME280;13450;49.374;8.584;2023-12-20T00:47:09;100631.50;;;4.11;100.00
25560;BME280;13450;49.374;8.584;2023-12-20T00:49:34;100629.81;;;4.10;100.00
25560;BME280;13450;49.374;8.584;2023-12-20T00:51:59;100625.66;;;4.08;100.00
25560;BME280;13450;49.374;8.584;2023-12-20T00:54:24;100629.13;;;4.08;100.00
25560;BME280;13450;49.374;8.584;2023-12-20T00:56:50;100635.00;;;4.12;100.00
25560;BME280;13450;49.374;8.584;2023-12-20T00:59:16;100623.69;;;4.10;100.00
25560;BME280;13450;49.374;8.584;2023-12-20T01:01:42;100624.41;;;4.12;100.00
25560;BME280;13450;49.374;8.584;2023-12-20T01:04:07;100623.81;;;4.08;100.00
25560;BME280;13450;49.374;8.584;2023-12-20T01:06:32;100620.22;;;4.09;100.00
25560;BME280;13450;49.374;8.584;2023-12-20T01:08:58;100625.38;;;4.11;100.00
25560;BME280;13450;49.374;8.584;2023-12-20T01:11:23;100628.28;;;4.08;100.00
25560;BME280;13450;49.374;8.584;2023-12-20T01:13:48;100628.97;;;4.10;100.00
25560;BME280;13450;49.374;8.584;2023-12-20T01:16:14;100628.72;;;4.13;100.00
25560;BME280;13450;49.374;8.584;2023-12-20T01:18:39;100626.34;;;4.10;100.00
25560;BME280;13450;49.374;8.584;2023-12-20T01:21:07;100627.44;;;4.07;100.00
25560;BME280;13450;49.374;8.584;2023-12-20T01:23:32;100624.66;;;4.09;100.00
25560;BME280;13450;49.374;8.584;2023-12-20T01:26:00;100620.09;;;4.11;100.00
25560;BME280;13450;49.374;8.584;2023-12-20T01:28:27;100626.19;;;4.11;100.00
25560;BME280;13450;49.374;8.584;2023-12-20T01:30:52;100616.72;;;4.09;100.00
25560;BME280;13450;49.374;8.584;2023-12-20T01:33:18;100625.38;;;4.11;100.00
25560;BME280;13450;49.374;8.584;2023-12-20T01:35:43;100614.78;;;4.11;100.00
25560;BME280;13450;49.374;8.584;2023-12-20T01:38:08;100608.63;;;4.10;100.00
25560;BME280;13450;49.374;8.584;2023-12-20T01:40:34;100612.53;;;4.06;100.00
25560;BME280;13450;49.374;8.584;2023-12-20T01:43:02;100620.63;;;4.04;100.00
25560;BME280;13450;49.374;8.584;2023-12-20T01:45:28;100618.81;;;4.05;100.00
25560;BME280;13450;49.374;8.584;2023-12-20T01:47:57;100622.56;;;4.02;100.00
25560;BME280;13450;49.374;8.584;2023-12-20T01:50:23;100617.69;;;4.08;100.00
25560;BME280;13450;49.374;8.584;2023-12-20T01:52:49;100622.16;;;4.07;100.00
25560;BME280;13450;49.374;8.584;2023-12-20T01:55:18;100626.63;;;4.07;100.00
25560;BME280;13450;49.374;8.584;2023-12-20T01:57:43;100617.16;;;4.04;100.00
25560;BME280;13450;49.374;8.584;2023-12-20T02:00:10;100620.63;;;4.04;100.00
25560;BME280;13450;49.374;8.584;2023-12-20T02:02:39;100620.06;;;4.01;100.00
25560;BME280;13450;49.374;8.584;2023-12-20T02:05:05;100609.34;;;4.02;100.00
25560;BME280;13450;49.374;8.584;2023-12-20T02:07:31;100612.00;;;4.02;100.00
25560;BME280;13450;49.374;8.584;2023-12-20T02:09:56;100610.28;;;4.01;100.00
25560;BME280;13450;49.374;8.584;2023-12-20T02:12:22;100620.06;;;4.01;100.00
25560;BME280;13450;49.374;8.584;2023-12-20T02:14:48;100622.84;;;3.99;100.00
25560;BME280;13450;49.374;8.584;2023-12-20T02:17:14;100618.41;;;4.00;100.00
25560;BME280;13450;49.374;8.584;2023-12-20T02:19:39;100623.97;;;3.97;100.00
25560;BME280;13450;49.374;8.584;2023-12-20T02:22:08;100617.81;;;3.96;100.00
25560;BME280;13450;49.374;8.584;2023-12-20T02:24:33;100621.44;;;3.95;100.00
25560;BME280;13450;49.374;8.584;2023-12-20T02:26:58;100621.44;;;3.95;100.00
25560;BME280;13450;49.374;8.584;2023-12-20T02:29:24;100628.41;;;3.96;100.00
25560;BME280;13450;49.374;8.584;2023-12-20T02:31:49;100616.16;;;3.95;100.00
25560;BME280;13450;49.374;8.584;2023-12-20T02:34:14;100615.88;;;3.98;100.00
25560;BME280;13450;49.374;8.584;2023-12-20T02:36:39;100616.69;;;3.99;100.00
25560;BME280;13450;49.374;8.584;2023-12-20T02:39:05;100615.44;;;4.03;100.00
25560;BME280;13450;49.374;8.584;2023-12-20T02:41:30;100618.22;;;4.01;100.00
25560;BME280;13450;49.374;8.584;2023-12-20T02:43:57;100628.69;;;4.03;100.00
25560;BME280;13450;49.374;8.584;2023-12-20T02:46:23;100631.47;;;4.01;100.00
25560;BME280;13450;49.374;8.584;2023-12-20T02:48:48;100624.25;;;4.03;100.00
25560;BME280;13450;49.374;8.584;2023-12-20T02:51:13;100630.22;;;4.05;100.00
25560;BME280;13450;49.374;8.584;2023-12-20T02:53:41;100617.84;;;4.06;100.00
25560;BME280;13450;49.374;8.584;2023-12-20T02:56:06;100606.38;;;4.05;100.00
25560;BME280;13450;49.374;8.584;2023-12-20T02:58:31;100602.78;;;4.07;100.00
25560;BME280;13450;49.374;8.584;2023-12-20T03:00:59;100599.16;;;4.08;100.00
25560;BME280;13450;49.374;8.584;2023-12-20T03:03:24;100608.78;;;4.09;100.00
25560;BME280;13450;49.374;8.584;2023-12-20T03:05:50;100618.69;;;4.07;100.00
25560;BME280;13450;49.374;8.584;2023-12-20T03:08:15;100616.84;;;4.07;100.00
25560;BME280;13450;49.374;8.584;2023-12-20T03:10:44;100616.03;;;4.07;100.00
25560;BME280;13450;49.374;8.584;2023-12-20T03:13:09;100619.38;;;4.09;100.00
25560;BME280;13450;49.374;8.584;2023-12-20T03:15:34;100616.72;;;4.09;100.00
25560;BME280;13450;49.374;8.584;2023-12-20T03:17:59;100616.16;;;4.05;100.00
25560;BME280;13450;49.374;8.584;2023-12-20T03:20:25;100623.97;;;4.07;100.00
25560;BME280;13450;49.374;8.584;2023-12-20T03:22:53;100622.28;;;4.05;100.00
25560;BME280;13450;49.374;8.584;2023-12-20T03:25:20;100626.75;;;4.05;100.00
25560;BME280;13450;49.374;8.584;2023-12-20T03:27:46;100623.13;;;4.06;100.00
25560;BME280;13450;49.374;8.584;2023-12-20T03:30:13;100628.44;;;4.06;100.00
25560;BME280;13450;49.374;8.584;2023-12-20T03:32:39;100629.28;;;4.07;100.00
25560;BME280;13450;49.374;8.584;2023-12-20T03:35:07;100625.38;;;4.11;100.00
25560;BME280;13450;49.374;8.584;2023-12-20T03:37:32;100620.09;;;4.11;100.00
25560;BME280;13450;49.374;8.584;2023-12-20T03:39:58;100623.69;;;4.10;100.00
25560;BME280;13450;49.374;8.584;2023-12-20T03:42:23;100624.53;;;4.10;100.00
25560;BME280;13450;49.374;8.584;2023-12-20T03:44:51;100627.31;;;4.09;100.00
25560;BME280;13450;49.374;8.584;2023-12-20T03:47:16;100619.50;;;4.07;100.00
25560;BME280;13450;49.374;8.584;2023-12-20T03:49:41;100622.28;;;4.05;100.00
25560;BME280;13450;49.374;8.584;2023-12-20T03:52:07;100616.03;;;4.07;100.00
25560;BME280;13450;49.374;8.584;2023-12-20T03:54:33;100622.28;;;4.05;100.00
25560;BME280;13450;49.374;8.584;2023-12-20T03:56:58;100618.69;;;4.07;100.00
25560;BME280;13450;49.374;8.584;2023-12-20T03:59:26;100612.66;;;4.04;100.00
25560;BME280;13450;49.374;8.584;2023-12-20T04:01:51;100616.72;;;4.09;100.00
25560;BME280;13450;49.374;8.584;2023-12-20T04:04:16;100618.38;;;4.10;100.00
25560;BME280;13450;49.374;8.584;2023-12-20T04:06:46;100611.69;;;4.05;100.00
25560;BME280;13450;49.374;8.584;2023-12-20T04:09:11;100616.97;;;4.05;100.00
25560;BME280;13450;49.374;8.584;2023-12-20T04:11:37;100623.97;;;4.07;100.00
25560;BME280;13450;49.374;8.584;2023-12-20T04:14:02;100619.94;;;4.02;100.00
25560;BME280;13450;49.374;8.584;2023-12-20T04:16:27;100621.59;;;4.03;100.00
25560;BME280;13450;49.374;8.584;2023-12-20T04:18:55;100630.09;;;4.07;100.00
25560;BME280;13450;49.374;8.584;2023-12-20T04:21:21;100630.09;;;4.07;100.00
25560;BME280;13450;49.374;8.584;2023-12-20T04:23:46;100636.25;;;4.08;100.00
25560;BME280;13450;49.374;8.584;2023-12-20T04:26:11;100636.25;;;4.08;100.00
25560;BME280;13450;49.374;8.584;2023-12-20T04:28:37;100646.84;;;4.08;100.00
25560;BME280;13450;49.374;8.584;2023-12-20T04:31:02;100640.69;;;4.07;100.00
25560;BME280;13450;49.374;8.584;2023-12-20T04:33:27;100649.63;;;4.06;100.00
25560;BME280;13450;49.374;8.584;2023-12-20T04:35:53;100650.47;;;4.07;100.00
25560;BME280;13450;49.374;8.584;2023-12-20T04:38:18;100651.28;;;4.07;100.00
25560;BME280;13450;49.374;8.584;2023-12-20T04:40:43;100658.25;;;4.08;100.00
25560;BME280;13450;49.374;8.584;2023-12-20T04:43:09;100660.22;;;4.06;100.00
25560;BME280;13450;49.374;8.584;2023-12-20T04:45:34;100661.06;;;4.07;100.00
25560;BME280;13450;49.374;8.584;2023-12-20T04:48:01;100664.41;;;4.09;100.00
25560;BME280;13450;49.374;8.584;2023-12-20T04:50:27;100669.97;;;4.05;100.00
25560;BME280;13450;49.374;8.584;2023-12-20T04:52:52;100673.19;;;4.09;100.00
25560;BME280;13450;49.374;8.584;2023-12-20T04:55:17;100675.72;;;4.11;100.00
25560;BME280;13450;49.374;8.584;2023-12-20T04:57:45;100668.44;;;4.13;100.00
25560;BME280;13450;49.374;8.584;2023-12-20T05:00:11;100663.16;;;4.13;100.00
25560;BME280;13450;49.374;8.584;2023-12-20T05:02:37;100666.66;;;4.13;100.00
25560;BME280;13450;49.374;8.584;2023-12-20T05:05:02;100671.09;;;4.13;100.00
25560;BME280;13450;49.374;8.584;2023-12-20T05:07:28;100674.72;;;4.12;100.00
25560;BME280;13450;49.374;8.584;2023-12-20T05:09:53;100676.13;;;4.16;100.00
25560;BME280;13450;49.374;8.584;2023-12-20T05:12:18;100679.72;;;4.15;100.00
25560;BME280;13450;49.374;8.584;2023-12-20T05:14:44;100687.41;;;4.18;100.00
25560;BME280;13450;49.374;8.584;2023-12-20T05:17:09;100693.69;;;4.17;100.00
25560;BME280;13450;49.374;8.584;2023-12-20T05:19:36;100695.34;;;4.18;100.00
25560;BME280;13450;49.374;8.584;2023-12-20T05:22:02;100699.69;;;4.19;100.00
25560;BME280;13450;49.374;8.584;2023-12-20T05:24:27;100700.66;;;4.18;100.00
25560;BME280;13450;49.374;8.584;2023-12-20T05:26:52;100702.91;;;4.23;100.00
25560;BME280;13450;49.374;8.584;2023-12-20T05:29:20;100690.47;;;4.23;100.00
25560;BME280;13450;49.374;8.584;2023-12-20T05:31:48;100686.44;;;4.19;100.00
25560;BME280;13450;49.374;8.584;2023-12-20T05:34:13;100688.94;;;4.21;100.00
25560;BME280;13450;49.374;8.584;2023-12-20T05:36:39;100706.38;;;4.23;100.00
25560;BME280;13450;49.374;8.584;2023-12-20T05:39:04;100707.09;;;4.25;100.00
25560;BME280;13450;49.374;8.584;2023-12-20T05:41:32;100698.03;;;4.28;100.00
25560;BME280;13450;49.374;8.584;2023-12-20T05:43:57;100694.28;;;4.30;100.00
25560;BME280;13450;49.374;8.584;2023-12-20T05:46:25;100695.38;;;4.28;100.00
25560;BME280;13450;49.374;8.584;2023-12-20T05:48:51;100695.38;;;4.28;100.00
25560;BME280;13450;49.374;8.584;2023-12-20T05:51:17;100691.88;;;4.27;100.00
25560;BME280;13450;49.374;8.584;2023-12-20T05:53:43;100699.84;;;4.27;100.00
25560;BME280;13450;49.374;8.584;2023-12-20T05:56:09;100715.47;;;4.30;100.00
25560;BME280;13450;49.374;8.584;2023-12-20T05:58:35;100734.69;;;4.32;100.00
25560;BME280;13450;49.374;8.584;2023-12-20T06:01:00;100740.00;;;4.32;100.00
25560;BME280;13450;49.374;8.584;2023-12-20T06:03:26;100741.69;;;4.34;100.00
25560;BME280;13450;49.374;8.584;2023-12-20T06:05:53;100740.00;;;4.32;100.00
25560;BME280;13450;49.374;8.584;2023-12-20T06:08:21;100747.81;;;4.34;100.00
25560;BME280;13450;49.374;8.584;2023-12-20T06:10:46;100751.19;;;4.36;100.00
25560;BME280;13450;49.374;8.584;2023-12-20T06:13:11;100766.66;;;4.41;100.00
25560;BME280;13450;49.374;8.584;2023-12-20T06:15:38;100766.66;;;4.41;100.00
25560;BME280;13450;49.374;8.584;2023-12-20T06:18:04;100769.91;;;4.44;100.00
25560;BME280;13450;49.374;8.584;2023-12-20T06:20:29;100773.22;;;4.47;100.00
25560;BME280;13450;49.374;8.584;2023-12-20T06:22:54;100783.72;;;4.48;100.00
25560;BME280;13450;49.374;8.584;2023-12-20T06:25:20;100782.47;;;4.52;100.00
25560;BME280;13450;49.374;8.584;2023-12-20T06:27:45;100786.38;;;4.58;100.00
25560;BME280;13450;49.374;8.584;2023-12-20T06:30:11;100786.94;;;4.62;100.00
25560;BME280;13450;49.374;8.584;2023-12-20T06:32:36;100784.72;;;4.67;100.00
25560;BME280;13450;49.374;8.584;2023-12-20T06:35:03;100774.66;;;4.70;100.00
25560;BME280;13450;49.374;8.584;2023-12-20T06:37:30;100777.72;;;4.76;100.00
25560;BME280;13450;49.374;8.584;2023-12-20T06:39:57;100778.84;;;4.73;100.00
25560;BME280;13450;49.374;8.584;2023-12-20T06:42:23;100777.19;;;4.72;100.00
25560;BME280;13450;49.374;8.584;2023-12-20T06:44:50;100796.72;;;4.71;100.00
25560;BME280;13450;49.374;8.584;2023-12-20T06:47:18;100795.31;;;4.67;100.00
25560;BME280;13450;49.374;8.584;2023-12-20T06:49:46;100791.97;;;4.65;100.00
25560;BME280;13450;49.374;8.584;2023-12-20T06:52:11;100787.75;;;4.62;100.00
25560;BME280;13450;49.374;8.584;2023-12-20T06:54:37;100780.78;;;4.61;100.00
25560;BME280;13450;49.374;8.584;2023-12-20T06:57:02;100795.88;;;4.61;100.00
25560;BME280;13450;49.374;8.584;2023-12-20T06:59:29;100805.50;;;4.62;100.00
25560;BME280;13450;49.374;8.584;2023-12-20T07:01:54;100805.38;;;4.63;100.00
25560;BME280;13450;49.374;8.584;2023-12-20T07:04:20;100802.41;;;4.66;100.00
25560;BME280;13450;49.374;8.584;2023-12-20T07:06:47;100803.13;;;4.68;100.00
25560;BME280;13450;49.374;8.584;2023-12-20T07:09:13;100796.97;;;4.68;100.00
25560;BME280;13450;49.374;8.584;2023-12-20T07:11:39;100791.69;;;4.68;100.00
25560;BME280;13450;49.374;8.584;2023-12-20T07:14:04;100792.78;;;4.65;100.00
25560;BME280;13450;49.374;8.584;2023-12-20T07:16:32;100788.19;;;4.57;100.00
25560;BME280;13450;49.374;8.584;2023-12-20T07:19:00;100783.56;;;4.50;100.00
25560;BME280;13450;49.374;8.584;2023-12-20T07:21:25;100790.25;;;4.44;100.00
25560;BME280;13450;49.374;8.584;2023-12-20T07:23:50;100796.38;;;4.35;100.00
25560;BME280;13450;49.374;8.584;2023-12-20T07:26:17;100794.41;;;4.27;100.00
25560;BME280;13450;49.374;8.584;2023-12-20T07:28:42;100788.94;;;4.18;100.00
25560;BME280;13450;49.374;8.584;2023-12-20T07:31:07;100789.31;;;4.14;100.00
25560;BME280;13450;49.374;8.584;2023-12-20T07:33:33;100791.66;;;4.07;100.00
25560;BME280;13450;49.374;8.584;2023-12-20T07:35:59;100793.75;;;4.03;100.00
25560;BME280;13450;49.374;8.584;2023-12-20T07:38:24;100804.59;;;4.00;100.00
25560;BME280;13450;49.374;8.584;2023-12-20T07:40:50;100808.22;;;3.99;100.00
25560;BME280;13450;49.374;8.584;2023-12-20T07:43:15;100815.47;;;3.97;100.00
25560;BME280;13450;49.374;8.584;2023-12-20T07:45:40;100800.16;;;4.01;100.00
25560;BME280;13450;49.374;8.584;2023-12-20T07:48:06;100806.44;;;4.00;100.00
25560;BME280;13450;49.374;8.584;2023-12-20T07:50:32;100805.44;;;4.01;100.00
25560;BME280;13450;49.374;8.584;2023-12-20T07:53:00;100813.53;;;3.99;100.00
25560;BME280;13450;49.374;8.584;2023-12-20T07:55:26;100821.34;;;4.01;100.00
25560;BME280;13450;49.374;8.584;2023-12-20T07:57:52;100830.84;;;4.03;100.00
25560;BME280;13450;49.374;8.584;2023-12-20T08:00:17;100835.16;;;4.04;100.00
25560;BME280;13450;49.374;8.584;2023-12-20T08:02:43;100829.97;;;4.03;100.00
25560;BME280;13450;49.374;8.584;2023-12-20T08:05:08;100823.56;;;4.05;100.00
25560;BME280;13450;49.374;8.584;2023-12-20T08:07:34;100831.41;;;4.07;100.00
25560;BME280;13450;49.374;8.584;2023-12-20T08:09:59;100842.59;;;4.11;100.00
25560;BME280;13450;49.374;8.584;2023-12-20T08:12:24;100835.22;;;4.14;100.00
25560;BME280;13450;49.374;8.584;2023-12-20T08:14:52;100837.59;;;4.17;100.00
25560;BME280;13450;49.374;8.584;2023-12-20T08:17:18;100838.28;;;4.19;100.00
25560;BME280;13450;49.374;8.584;2023-12-20T08:19:45;100846.53;;;4.26;100.00
25560;BME280;13450;49.374;8.584;2023-12-20T08:22:13;100835.13;;;4.36;100.00
25560;BME280;13450;49.374;8.584;2023-12-20T08:24:38;100835.47;;;4.52;100.00
25560;BME280;13450;49.374;8.584;2023-12-20T08:27:04;100839.41;;;4.68;100.00
25560;BME280;13450;49.374;8.584;2023-12-20T08:29:29;100835.38;;;4.74;100.00
25560;BME280;13450;49.374;8.584;2023-12-20T08:32:00;100832.03;;;4.81;100.00
25560;BME280;13450;49.374;8.584;2023-12-20T08:34:25;100837.50;;;4.90;100.00
25560;BME280;13450;49.374;8.584;2023-12-20T08:36:53;100825.22;;;4.89;100.00
25560;BME280;13450;49.374;8.584;2023-12-20T08:39:21;100818.22;;;4.97;100.00
25560;BME280;13450;49.374;8.584;2023-12-20T08:42:05;100821.84;;;4.96;100.00
25560;BME280;13450;49.374;8.584;2023-12-20T08:44:30;100828.84;;;5.07;100.00
25560;BME280;13450;49.374;8.584;2023-12-20T08:46:55;100830.81;;;5.05;100.00
25560;BME280;13450;49.374;8.584;2023-12-20T08:49:22;100833.03;;;5.20;100.00
25560;BME280;13450;49.374;8.584;2023-12-20T08:51:49;100838.03;;;5.23;100.00
25560;BME280;13450;49.374;8.584;2023-12-20T08:54:17;100841.16;;;5.28;100.00
25560;BME280;13450;49.374;8.584;2023-12-20T08:56:46;100822.84;;;5.25;100.00
25560;BME280;13450;49.374;8.584;2023-12-20T08:59:14;100834.84;;;5.29;100.00
25560;BME280;13450;49.374;8.584;2023-12-20T09:01:39;100833.47;;;5.25;100.00
25560;BME280;13450;49.374;8.584;2023-12-20T09:04:05;100835.25;;;5.24;100.00
25560;BME280;13450;49.374;8.584;2023-12-20T09:06:31;100827.75;;;5.20;100.00
25560;BME280;13450;49.374;8.584;2023-12-20T09:08:56;100823.53;;;5.27;100.00
25560;BME280;13450;49.374;8.584;2023-12-20T09:11:22;100832.47;;;5.26;100.00
25560;BME280;13450;49.374;8.584;2023-12-20T09:13:47;100825.22;;;5.28;100.00
25560;BME280;13450;49.374;8.584;2023-12-20T09:16:12;100828.72;;;5.19;100.00
25560;BME280;13450;49.374;8.584;2023-12-20T09:18:38;100834.97;;;5.18;100.00
25560;BME280;13450;49.374;8.584;2023-12-20T09:21:04;100841.69;;;5.22;100.00
25560;BME280;13450;49.374;8.584;2023-12-20T09:23:29;100837.91;;;5.24;100.00
25560;BME280;13450;49.374;8.584;2023-12-20T09:25:54;100840.03;;;5.31;100.00
25560;BME280;13450;49.374;8.584;2023-12-20T09:28:22;100833.88;;;5.40;100.00
25560;BME280;13450;49.374;8.584;2023-12-20T09:30:48;100847.25;;;5.58;100.00
25560;BME280;13450;49.374;8.584;2023-12-20T09:33:14;100847.50;;;5.75;100.00
25560;BME280;13450;49.374;8.584;2023-12-20T09:35:39;100854.72;;;5.93;100.00
25560;BME280;13450;49.374;8.584;2023-12-20T09:38:05;100852.63;;;5.86;100.00
25560;BME280;13450;49.374;8.584;2023-12-20T09:40:32;100857.50;;;6.01;100.00
25560;BME280;13450;49.374;8.584;2023-12-20T09:42:58;100856.34;;;6.13;100.00
25560;BME280;13450;49.374;8.584;2023-12-20T09:45:28;100851.25;;;6.30;100.00
25560;BME280;13450;49.374;8.584;2023-12-20T09:47:56;100851.75;;;6.44;100.00
25560;BME280;13450;49.374;8.584;2023-12-20T09:50:22;100860.22;;;6.57;100.00
25560;BME280;13450;49.374;8.584;2023-12-20T09:52:52;100860.50;;;6.82;100.00
25560;BME280;13450;49.374;8.584;2023-12-20T09:55:19;100855.34;;;6.99;100.00
25560;BME280;13450;49.374;8.584;2023-12-20T09:57:48;100847.88;;;7.20;100.00
25560;BME280;13450;49.374;8.584;2023-12-20T10:00:14;100858.75;;;7.27;100.00
25560;BME280;13450;49.374;8.584;2023-12-20T10:02:45;100850.56;;;7.39;100.00
25560;BME280;13450;49.374;8.584;2023-12-20T10:05:16;100860.78;;;7.70;100.00
25560;BME280;13450;49.374;8.584;2023-12-20T10:07:46;100856.59;;;7.94;100.00
25560;BME280;13450;49.374;8.584;2023-12-20T10:10:13;100863.00;;;8.09;100.00
25560;BME280;13450;49.374;8.584;2023-12-20T10:12:41;100862.69;;;8.13;100.00
25560;BME280;13450;49.374;8.584;2023-12-20T10:15:23;100861.38;;;8.17;100.00
25560;BME280;13450;49.374;8.584;2023-12-20T10:17:49;100852.81;;;8.40;100.00
25560;BME280;13450;49.374;8.584;2023-12-20T10:20:14;100853.63;;;8.32;100.00
25560;BME280;13450;49.374;8.584;2023-12-20T10:22:39;100855.19;;;8.16;100.00
25560;BME280;13450;49.374;8.584;2023-12-20T10:25:05;100855.69;;;8.11;100.00
25560;BME280;13450;49.374;8.584;2023-12-20T10:27:33;100851.94;;;7.69;100.00
25560;BME280;13450;49.374;8.584;2023-12-20T10:30:01;100858.94;;;7.70;100.00
25560;BME280;13450;49.374;8.584;2023-12-20T10:32:27;100844.81;;;8.05;100.00
25560;BME280;13450;49.374;8.584;2023-12-20T10:34:55;100844.28;;;8.28;100.00
25560;BME280;13450;49.374;8.584;2023-12-20T10:37:24;100834.38;;;8.11;100.00
25560;BME280;13450;49.374;8.584;2023-12-20T10:39:53;100839.00;;;8.01;100.00
25560;BME280;13450;49.374;8.584;2023-12-20T10:42:24;100830.41;;;7.89;100.00
25560;BME280;13450;49.374;8.584;2023-12-20T10:44:51;100827.75;;;7.36;100.00
25560;BME280;13450;49.374;8.584;2023-12-20T10:47:17;100825.81;;;7.28;100.00
25560;BME280;13450;49.374;8.584;2023-12-20T10:49:43;100826.28;;;7.24;100.00
25560;BME280;13450;49.374;8.584;2023-12-20T10:52:11;100828.22;;;7.13;100.00
25560;BME280;13450;49.374;8.584;2023-12-20T10:54:39;100825.69;;;6.93;100.00
25560;BME280;13450;49.374;8.584;2023-12-20T10:57:06;100825.53;;;6.77;100.00
25560;BME280;13450;49.374;8.584;2023-12-20T10:59:33;100834.63;;;6.56;100.00
25560;BME280;13450;49.374;8.584;2023-12-20T11:02:02;100836.28;;;6.57;100.00
25560;BME280;13450;49.374;8.584;2023-12-20T11:04:36;100827.53;;;6.47;100.00
25560;BME280;13450;49.374;8.584;2023-12-20T11:07:17;100831.56;;;6.51;100.00
25560;BME280;13450;49.374;8.584;2023-12-20T11:09:54;100824.59;;;6.50;100.00
25560;BME280;13450;49.374;8.584;2023-12-20T11:12:43;100811.59;;;6.47;100.00
25560;BME280;13450;49.374;8.584;2023-12-20T11:15:10;100819.59;;;6.37;100.00
25560;BME280;13450;49.374;8.584;2023-12-20T11:17:38;100812.66;;;6.26;100.00
25560;BME280;13450;49.374;8.584;2023-12-20T11:20:05;100809.63;;;6.21;100.00
25560;BME280;13450;49.374;8.584;2023-12-20T11:22:31;100806.84;;;6.12;100.00
25560;BME280;13450;49.374;8.584;2023-12-20T11:25:04;100813.56;;;6.17;100.00
25560;BME280;13450;49.374;8.584;2023-12-20T11:27:30;100800.97;;;6.19;100.00
25560;BME280;13450;49.374;8.584;2023-12-20T11:29:57;100799.72;;;6.13;100.00
25560;BME280;13450;49.374;8.584;2023-12-20T11:34:55;100790.63;;;6.15;100.00
25560;BME280;13450;49.374;8.584;2023-12-20T11:37:21;100795.66;;;6.19;100.00
25560;BME280;13450;49.374;8.584;2023-12-20T11:40:00;100798.19;;;6.10;100.00
25560;BME280;13450;49.374;8.584;2023-12-20T11:42:30;100804.66;;;6.08;100.00
25560;BME280;13450;49.374;8.584;2023-12-20T11:44:57;100799.47;;;6.06;100.00
25560;BME280;13450;49.374;8.584;2023-12-20T11:47:22;100792.88;;;6.10;100.00
25560;BME280;13450;49.374;8.584;2023-12-20T11:49:48;100787.25;;;6.13;100.00
25560;BME280;13450;49.374;8.584;2023-12-20T11:52:14;100788.44;;;6.29;100.00
25560;BME280;13450;49.374;8.584;2023-12-20T11:54:39;100784.38;;;6.35;100.00
25560;BME280;13450;49.374;8.584;2023-12-20T11:57:04;100791.97;;;6.48;100.00
25560;BME280;13450;49.374;8.584;2023-12-20T11:59:34;100798.31;;;6.65;100.00
25560;BME280;13450;49.374;8.584;2023-12-20T12:02:01;100788.41;;;6.57;100.00
25560;BME280;13450;49.374;8.584;2023-12-20T12:04:27;100786.75;;;6.56;100.00
25560;BME280;13450;49.374;8.584;2023-12-20T12:06:53;100778.97;;;6.45;100.00
25560;BME280;13450;49.374;8.584;2023-12-20T12:09:19;100774.28;;;6.38;100.00
25560;BME280;13450;49.374;8.584;2023-12-20T12:11:44;100787.19;;;6.33;100.00
25560;BME280;13450;49.374;8.584;2023-12-20T12:14:10;100795.91;;;6.25;100.00
25560;BME280;13450;49.374;8.584;2023-12-20T12:16:35;100781.09;;;6.23;100.00
25560;BME280;13450;49.374;8.584;2023-12-20T12:19:01;100779.53;;;6.20;100.00
25560;BME280;13450;49.374;8.584;2023-12-20T12:21:26;100782.13;;;6.12;100.00
25560;BME280;13450;49.374;8.584;2023-12-20T12:23:52;100780.41;;;6.11;100.00
25560;BME280;13450;49.374;8.584;2023-12-20T12:26:20;100791.38;;;6.08;100.00
25560;BME280;13450;49.374;8.584;2023-12-20T12:28:50;100780.47;;;6.01;100.00
25560;BME280;13450;49.374;8.584;2023-12-20T12:31:15;100776.69;;;5.94;100.00
25560;BME280;13450;49.374;8.584;2023-12-20T12:33:41;100771.59;;;5.82;100.00
25560;BME280;13450;49.374;8.584;2023-12-20T12:36:09;100787.59;;;5.91;100.00
25560;BME280;13450;49.374;8.584;2023-12-20T12:38:34;100781.91;;;5.85;100.00
25560;BME280;13450;49.374;8.584;2023-12-20T12:41:02;100777.69;;;5.93;100.00
25560;BME280;13450;49.374;8.584;2023-12-20T12:43:27;100778.38;;;5.95;100.00
25560;BME280;13450;49.374;8.584;2023-12-20T12:45:53;100787.59;;;5.91;100.00
25560;BME280;13450;49.374;8.584;2023-12-20T12:48:21;100788.47;;;5.81;100.00